Time;durP1;ratioP1;P1;durP2;ratioP2;P2;SDS_P1;SDS_P2;PMS_P1;PMS_P2;Temp;Humidity;BMP_temperature;BMP_pressure;BME280_temperature;BME280_humidity;BME280_pressure;Samples;Min_cycle;Max_cycle;Signal;HPM_P1;HPM_P2
2023/06/01 00:01:21;;;;;;;36.50;18.88;;;;;;;;;;5013212;28;20054;-83
2023/06/01 00:04:08;;;;;;;28.60;18.48;;;;;;;;;;5019153;28;20054;-83
2023/06/01 00:06:52;;;;;;;33.90;19.17;;;;;;;;;;5012924;28;20041;-81
2023/06/01 00:09:38;;;;;;;32.38;18.30;;;;;;;;;;5013297;28;20042;-82
2023/06/01 00:12:23;;;;;;;27.13;17.73;;;;;;;;;;5032575;28;20058;-83
2023/06/01 00:15:09;;;;;;;28.85;18.58;;;;;;;;;;5012969;28;20053;-81
2023/06/01 00:17:55;;;;;;;29.60;19.45;;;;;;;;;;5032546;28;20483;-82
2023/06/01 00:20:42;;;;;;;29.40;17.85;;;;;;;;;;5011462;28;20037;-83
2023/06/01 00:23:28;;;;;;;37.58;18.00;;;;;;;;;;4998166;28;20407;-82
2023/06/01 00:26:14;;;;;;;28.95;18.25;;;;;;;;;;5013268;28;20041;-83
2023/06/01 00:29:01;;;;;;;29.55;18.20;;;;;;;;;;5011611;28;20062;-82
2023/06/01 00:31:47;;;;;;;24.63;17.92;;;;;;;;;;5013148;28;20057;-83
2023/06/01 00:34:33;;;;;;;29.05;18.35;;;;;;;;;;5012946;28;20045;-83
2023/06/01 00:37:19;;;;;;;28.70;17.55;;;;;;;;;;5010430;28;20050;-82
2023/06/01 00:40:04;;;;;;;29.25;17.48;;;;;;;;;;5011812;28;20045;-82
2023/06/01 00:42:50;;;;;;;31.70;18.48;;;;;;;;;;5018189;28;20046;-82
2023/06/01 00:45:35;;;;;;;32.95;18.00;;;;;;;;;;5018049;28;20042;-82
2023/06/01 00:48:23;;;;;;;29.13;16.50;;;;;;;;;;5012379;28;20046;-82
2023/06/01 00:51:08;;;;;;;24.25;15.18;;;;;;;;;;5018016;28;20475;-82
2023/06/01 00:53:53;;;;;;;20.63;13.07;;;;;;;;;;5025084;28;20053;-82
2023/06/01 00:56:39;;;;;;;18.42;12.90;;;;;;;;;;5018029;28;20483;-82
2023/06/01 00:59:25;;;;;;;19.70;12.20;;;;;;;;;;5012512;28;20038;-82
2023/06/01 01:02:13;;;;;;;19.65;12.27;;;;;;;;;;5017835;28;20042;-82
2023/06/01 01:04:59;;;;;;;18.63;11.40;;;;;;;;;;5017612;28;20072;-83
2023/06/01 01:08:03;;;;;;;17.23;11.05;;;;;;;;;;5012314;28;20416;-83
2023/06/01 01:11:10;;;;;;;19.48;11.25;;;;;;;;;;5017841;28;20045;-84
2023/06/01 01:14:06;;;;;;;16.95;10.93;;;;;;;;;;5018073;28;20046;-84
2023/06/01 01:17:02;;;;;;;18.60;11.10;;;;;;;;;;5017967;28;20042;-83
2023/06/01 01:20:00;;;;;;;16.92;11.02;;;;;;;;;;5012509;28;20034;-83
2023/06/01 01:23:33;;;;;;;18.42;10.57;;;;;;;;;;5012548;28;20396;-84
2023/06/01 01:26:48;;;;;;;16.88;10.70;;;;;;;;;;5012001;28;20042;-85
2023/06/01 01:29:37;;;;;;;17.10;10.70;;;;;;;;;;5012427;28;20061;-84
2023/06/01 01:32:23;;;;;;;16.63;10.18;;;;;;;;;;5017755;28;20045;-85
2023/06/01 01:35:10;;;;;;;12.38;7.75;;;;;;;;;;5017206;28;20601;-84
2023/06/01 01:37:56;;;;;;;13.30;7.07;;;;;;;;;;5017530;28;20387;-83
2023/06/01 01:40:43;;;;;;;8.40;6.30;;;;;;;;;;5017425;28;20057;-84
2023/06/01 01:43:30;;;;;;;10.82;7.55;;;;;;;;;;5005043;28;20049;-83
2023/06/01 01:46:22;;;;;;;13.73;7.60;;;;;;;;;;5012064;28;20476;-85
2023/06/01 01:49:20;;;;;;;11.65;7.60;;;;;;;;;;5011418;28;20034;-84
2023/06/01 01:52:12;;;;;;;15.20;9.18;;;;;;;;;;5018241;28;20049;-83
2023/06/01 01:54:58;;;;;;;15.80;9.32;;;;;;;;;;5019288;28;20046;-85
2023/06/01 01:57:45;;;;;;;15.88;8.85;;;;;;;;;;5019637;28;20038;-85
2023/06/01 02:00:31;;;;;;;11.38;7.75;;;;;;;;;;5019204;28;20038;-84
2023/06/01 02:03:17;;;;;;;12.88;7.15;;;;;;;;;;5028296;28;20050;-84
2023/06/01 02:06:03;;;;;;;10.75;7.07;;;;;;;;;;5015561;28;20046;-83
2023/06/01 02:08:48;;;;;;;9.93;6.20;;;;;;;;;;5020898;28;20045;-85
2023/06/01 02:11:35;;;;;;;9.77;6.82;;;;;;;;;;5020222;28;20041;-83
2023/06/01 02:14:20;;;;;;;9.38;6.70;;;;;;;;;;5011824;28;20483;-83
2023/06/01 02:17:07;;;;;;;8.98;7.07;;;;;;;;;;5027620;28;20045;-83
2023/06/01 02:19:52;;;;;;;12.63;7.18;;;;;;;;;;5000256;28;20045;-84
2023/06/01 02:22:38;;;;;;;13.50;7.30;;;;;;;;;;5020673;28;20042;-84
2023/06/01 02:25:23;;;;;;;12.57;7.53;;;;;;;;;;5020556;28;20499;-83
2023/06/01 02:28:10;;;;;;;12.93;6.72;;;;;;;;;;5020322;28;20054;-84
2023/06/01 02:30:56;;;;;;;12.98;7.32;;;;;;;;;;5020605;28;20046;-84
2023/06/01 02:33:41;;;;;;;11.55;6.75;;;;;;;;;;5020571;28;20045;-84
2023/06/01 02:36:28;;;;;;;8.65;6.40;;;;;;;;;;5020505;28;20479;-83
2023/06/01 02:39:15;;;;;;;12.73;6.63;;;;;;;;;;5020755;28;20038;-83
2023/06/01 02:42:00;;;;;;;10.90;7.15;;;;;;;;;;5020281;28;20483;-82
2023/06/01 02:44:45;;;;;;;8.48;6.28;;;;;;;;;;5027633;28;20054;-84
2023/06/01 02:47:31;;;;;;;11.40;7.32;;;;;;;;;;5020042;28;20411;-82
2023/06/01 02:50:17;;;;;;;10.75;7.10;;;;;;;;;;5020191;28;20042;-82
2023/06/01 02:53:06;;;;;;;16.67;7.82;;;;;;;;;;5020306;28;20483;-83
2023/06/01 02:55:51;;;;;;;15.10;8.25;;;;;;;;;;5019419;28;20045;-83
2023/06/01 02:58:50;;;;;;;12.73;7.88;;;;;;;;;;5016831;28;20045;-84
2023/06/01 03:01:49;;;;;;;15.63;8.73;;;;;;;;;;5019706;28;20045;-84
2023/06/01 03:04:35;;;;;;;13.98;9.10;;;;;;;;;;5020266;28;20054;-83
2023/06/01 03:07:20;;;;;;;13.50;9.15;;;;;;;;;;5020023;28;20045;-84
2023/06/01 03:10:12;;;;;;;20.08;8.85;;;;;;;;;;5019955;28;20050;-84
2023/06/01 03:13:10;;;;;;;12.88;8.50;;;;;;;;;;5008104;28;20046;-84
2023/06/01 03:15:56;;;;;;;17.00;9.18;;;;;;;;;;5019888;28;20053;-82
2023/06/01 03:18:42;;;;;;;12.52;8.70;;;;;;;;;;5019960;28;20456;-84
2023/06/01 03:21:27;;;;;;;15.48;10.45;;;;;;;;;;5019531;28;20054;-83
2023/06/01 03:24:12;;;;;;;16.00;9.68;;;;;;;;;;5019354;28;20408;-84
2023/06/01 03:26:58;;;;;;;14.75;9.43;;;;;;;;;;5019648;28;20045;-83
2023/06/01 03:29:46;;;;;;;14.50;10.02;;;;;;;;;;5014749;28;20046;-83
2023/06/01 03:32:31;;;;;;;17.05;9.80;;;;;;;;;;5014144;28;20423;-83
2023/06/01 03:35:18;;;;;;;13.60;9.85;;;;;;;;;;5019857;28;20041;-85
2023/06/01 03:38:04;;;;;;;18.88;10.98;;;;;;;;;;5019416;28;20038;-84
2023/06/01 03:40:49;;;;;;;20.00;11.40;;;;;;;;;;5019659;28;20394;-83
2023/06/01 03:43:35;;;;;;;19.83;11.80;;;;;;;;;;5013955;28;20053;-81
2023/06/01 03:46:20;;;;;;;21.85;12.50;;;;;;;;;;5018906;28;20042;-83
2023/06/01 03:49:06;;;;;;;19.95;12.23;;;;;;;;;;5019108;28;20492;-83
2023/06/01 03:51:52;;;;;;;23.13;13.38;;;;;;;;;;5017884;28;20061;-82
2023/06/01 03:54:37;;;;;;;20.48;13.10;;;;;;;;;;5018947;28;20061;-83
2023/06/01 03:57:28;;;;;;;20.80;12.85;;;;;;;;;;5012199;28;20479;-82
2023/06/01 04:00:20;;;;;;;19.73;13.48;;;;;;;;;;5005473;28;20045;-82
2023/06/01 04:03:11;;;;;;;20.98;13.38;;;;;;;;;;5012635;28;20037;-83
2023/06/01 04:05:59;;;;;;;21.50;13.00;;;;;;;;;;5018754;28;20049;-82
2023/06/01 04:08:49;;;;;;;22.02;13.15;;;;;;;;;;5018914;28;20042;-83
2023/06/01 04:11:34;;;;;;;19.98;13.60;;;;;;;;;;5012766;28;20049;-82
2023/06/01 04:14:19;;;;;;;24.25;14.05;;;;;;;;;;5017056;28;20049;-82
2023/06/01 04:17:06;;;;;;;25.02;12.82;;;;;;;;;;5018771;28;20050;-83
2023/06/01 04:19:51;;;;;;;22.38;14.38;;;;;;;;;;5004740;28;20042;-83
2023/06/01 04:22:41;;;;;;;21.40;14.13;;;;;;;;;;5012980;28;20527;-83
2023/06/01 04:25:28;;;;;;;24.27;13.63;;;;;;;;;;5018470;28;20046;-83
2023/06/01 04:28:14;;;;;;;22.65;14.35;;;;;;;;;;5017787;28;20050;-84
2023/06/01 04:31:02;;;;;;;23.05;14.27;;;;;;;;;;5017879;28;20050;-83
2023/06/01 04:33:52;;;;;;;21.83;14.02;;;;;;;;;;5018318;28;20053;-83
2023/06/01 04:36:38;;;;;;;23.13;14.15;;;;;;;;;;5007411;28;20046;-82
2023/06/01 04:39:25;;;;;;;21.73;13.32;;;;;;;;;;5011006;28;20050;-82
2023/06/01 04:42:13;;;;;;;21.73;13.93;;;;;;;;;;5018111;28;20396;-83
2023/06/01 04:44:59;;;;;;;24.30;14.18;;;;;;;;;;5017508;28;20049;-82
2023/06/01 04:47:46;;;;;;;18.98;13.73;;;;;;;;;;5017952;28;20399;-82
2023/06/01 04:50:49;;;;;;;19.42;13.20;;;;;;;;;;5015527;28;20038;-82
2023/06/01 04:53:34;;;;;;;22.42;13.93;;;;;;;;;;5018046;28;20050;-84
2023/06/01 04:56:26;;;;;;;21.48;13.45;;;;;;;;;;5017804;28;20049;-82
2023/06/01 04:59:12;;;;;;;20.70;13.23;;;;;;;;;;5017778;28;20049;-84
2023/06/01 05:01:59;;;;;;;20.13;13.13;;;;;;;;;;5017607;28;20049;-83
2023/06/01 05:04:45;;;;;;;20.65;13.45;;;;;;;;;;5018020;28;20054;-81
2023/06/01 05:07:30;;;;;;;21.40;13.05;;;;;;;;;;5031857;28;20053;-83
2023/06/01 05:10:16;;;;;;;22.23;12.77;;;;;;;;;;5031214;28;20042;-84
2023/06/01 05:13:03;;;;;;;20.08;13.43;;;;;;;;;;5017676;28;20057;-82
2023/06/01 05:15:49;;;;;;;26.48;13.68;;;;;;;;;;5017702;28;20045;-82
2023/06/01 05:18:35;;;;;;;18.77;12.13;;;;;;;;;;5017631;28;20046;-83
2023/06/01 05:21:21;;;;;;;20.25;13.20;;;;;;;;;;5031524;28;20042;-82
2023/06/01 05:24:07;;;;;;;21.60;13.48;;;;;;;;;;5011733;28;20050;-83
2023/06/01 05:26:53;;;;;;;18.50;13.35;;;;;;;;;;5017798;28;20049;-83
2023/06/01 05:29:39;;;;;;;19.83;13.32;;;;;;;;;;5013476;28;20058;-83
2023/06/01 05:32:25;;;;;;;23.00;13.80;;;;;;;;;;5012111;28;20050;-83
2023/06/01 05:35:12;;;;;;;20.75;12.73;;;;;;;;;;5031188;28;20484;-83
2023/06/01 05:37:59;;;;;;;21.42;13.65;;;;;;;;;;5031137;28;20049;-83
2023/06/01 05:40:45;;;;;;;20.45;13.73;;;;;;;;;;5017411;28;20038;-84
2023/06/01 05:43:35;;;;;;;25.80;14.05;;;;;;;;;;5017498;28;20042;-83
2023/06/01 05:46:21;;;;;;;20.55;14.38;;;;;;;;;;5017163;28;20046;-83
2023/06/01 05:49:06;;;;;;;18.27;13.25;;;;;;;;;;5017462;28;20045;-82
2023/06/01 05:51:51;;;;;;;21.02;12.88;;;;;;;;;;5017268;28;20050;-82
2023/06/01 05:54:37;;;;;;;22.33;12.90;;;;;;;;;;5010395;28;20051;-82
2023/06/01 05:57:22;;;;;;;26.50;14.25;;;;;;;;;;5017376;28;20046;-82
2023/06/01 06:00:15;;;;;;;21.25;13.05;;;;;;;;;;5017326;28;20042;-83
2023/06/01 06:03:07;;;;;;;21.20;13.95;;;;;;;;;;5016443;28;20054;-83
2023/06/01 06:05:52;;;;;;;18.33;12.88;;;;;;;;;;5024191;28;20483;-83
2023/06/01 06:08:38;;;;;;;20.75;12.40;;;;;;;;;;5011225;28;20049;-83
2023/06/01 06:11:25;;;;;;;17.80;12.52;;;;;;;;;;5011150;28;20054;-84
2023/06/01 06:14:13;;;;;;;20.38;12.38;;;;;;;;;;5017180;28;20049;-83
2023/06/01 06:17:02;;;;;;;16.55;12.30;;;;;;;;;;5011084;28;20041;-81
2023/06/01 06:19:48;;;;;;;17.92;12.10;;;;;;;;;;5024962;28;20045;-82
2023/06/01 06:22:38;;;;;;;20.40;12.73;;;;;;;;;;5011519;28;20049;-82
2023/06/01 06:25:23;;;;;;;18.33;12.52;;;;;;;;;;5024545;28;20050;-82
2023/06/01 06:28:11;;;;;;;20.15;12.93;;;;;;;;;;5011486;28;20045;-83
2023/06/01 06:30:57;;;;;;;19.85;12.63;;;;;;;;;;5010501;28;20500;-83
2023/06/01 06:33:45;;;;;;;19.30;13.00;;;;;;;;;;5011673;28;20392;-83
2023/06/01 06:36:34;;;;;;;21.85;12.55;;;;;;;;;;5012435;28;20050;-84
2023/06/01 06:39:26;;;;;;;20.33;12.52;;;;;;;;;;5015362;28;20038;-83
2023/06/01 06:42:18;;;;;;;20.65;12.13;;;;;;;;;;5020648;28;20065;-84
2023/06/01 06:45:24;;;;;;;17.13;12.07;;;;;;;;;;5015144;28;20046;-84
2023/06/01 06:48:10;;;;;;;19.20;12.10;;;;;;;;;;5014733;28;20053;-84
2023/06/01 06:51:01;;;;;;;21.80;12.65;;;;;;;;;;5027523;28;20038;-85
2023/06/01 06:53:50;;;;;;;15.13;11.45;;;;;;;;;;5027955;28;20042;-84
2023/06/01 06:56:46;;;;;;;21.38;13.07;;;;;;;;;;5019625;28;20049;-83
2023/06/01 06:59:38;;;;;;;19.77;12.95;;;;;;;;;;5008446;28;20053;-83
2023/06/01 07:02:26;;;;;;;20.38;13.65;;;;;;;;;;5013277;28;20046;-82
2023/06/01 07:05:13;;;;;;;17.85;12.90;;;;;;;;;;5015181;28;20058;-83
2023/06/01 07:07:59;;;;;;;22.05;12.70;;;;;;;;;;5014382;28;20061;-83
2023/06/01 07:10:46;;;;;;;20.85;12.95;;;;;;;;;;5022188;28;20484;-81
2023/06/01 07:13:37;;;;;;;26.35;13.68;;;;;;;;;;5013005;28;20041;-83
2023/06/01 07:16:29;;;;;;;20.85;13.20;;;;;;;;;;5020310;28;20065;-83
2023/06/01 07:19:15;;;;;;;23.08;13.90;;;;;;;;;;5019827;28;20037;-82
2023/06/01 07:22:01;;;;;;;28.67;14.05;;;;;;;;;;5018648;28;20046;-83
2023/06/01 07:24:55;;;;;;;18.63;13.43;;;;;;;;;;5020128;28;20050;-82
2023/06/01 07:27:55;;;;;;;20.42;14.45;;;;;;;;;;5018508;28;20112;-83
2023/06/01 07:30:51;;;;;;;22.60;15.70;;;;;;;;;;5027393;28;20054;-82
2023/06/01 07:33:44;;;;;;;24.73;15.25;;;;;;;;;;5016003;28;20046;-83
2023/06/01 07:36:33;;;;;;;22.08;14.32;;;;;;;;;;5012748;28;20049;-82
2023/06/01 07:39:19;;;;;;;25.60;14.82;;;;;;;;;;5013633;28;20042;-81
2023/06/01 07:42:05;;;;;;;21.10;14.45;;;;;;;;;;5013394;28;20492;-83
2023/06/01 07:44:51;;;;;;;26.75;17.17;;;;;;;;;;5013800;28;20487;-82
2023/06/01 07:47:38;;;;;;;23.30;15.98;;;;;;;;;;5014111;28;20050;-83
2023/06/01 07:50:28;;;;;;;24.38;16.13;;;;;;;;;;5012553;28;20042;-83
2023/06/01 07:53:15;;;;;;;22.15;15.63;;;;;;;;;;5012465;28;20392;-83
2023/06/01 07:56:01;;;;;;;25.33;16.40;;;;;;;;;;5015141;28;20038;-82
2023/06/01 07:58:47;;;;;;;23.42;14.70;;;;;;;;;;5012596;28;20049;-89
2023/06/01 08:01:32;;;;;;;26.33;16.13;;;;;;;;;;5011695;28;20042;-79
2023/06/01 08:04:21;;;;;;;23.23;15.57;;;;;;;;;;5013831;28;20669;-81
2023/06/01 08:07:08;;;;;;;19.75;15.40;;;;;;;;;;5012259;28;20045;-78
2023/06/01 08:09:53;;;;;;;24.35;15.95;;;;;;;;;;5012866;28;20049;-78
2023/06/01 08:12:38;;;;;;;19.83;14.13;;;;;;;;;;5013033;28;20049;-77
2023/06/01 08:15:25;;;;;;;22.92;15.00;;;;;;;;;;5011908;28;20049;-79
2023/06/01 08:18:10;;;;;;;22.58;15.68;;;;;;;;;;5013338;28;20049;-78
2023/06/01 08:20:56;;;;;;;22.98;14.10;;;;;;;;;;5017452;28;20395;-80
2023/06/01 08:23:42;;;;;;;21.88;15.80;;;;;;;;;;5012568;28;20395;-79
2023/06/01 08:26:28;;;;;;;22.60;15.30;;;;;;;;;;5012799;28;20045;-79
2023/06/01 08:29:16;;;;;;;24.23;16.20;;;;;;;;;;5011497;28;20061;-80
2023/06/01 08:32:02;;;;;;;21.48;15.20;;;;;;;;;;5012941;28;20053;-79
2023/06/01 08:34:48;;;;;;;25.25;16.30;;;;;;;;;;5017684;28;20603;-81
2023/06/01 08:37:35;;;;;;;22.00;16.45;;;;;;;;;;5012000;28;20049;-81
2023/06/01 08:40:20;;;;;;;24.05;16.52;;;;;;;;;;4998006;28;20041;-81
2023/06/01 08:43:18;;;;;;;22.40;15.55;;;;;;;;;;5011771;28;20434;-82
2023/06/01 08:46:03;;;;;;;23.17;16.17;;;;;;;;;;5017355;28;20049;-82
2023/06/01 08:48:53;;;;;;;24.85;16.05;;;;;;;;;;5012732;28;20041;-80
2023/06/01 08:51:41;;;;;;;27.67;18.27;;;;;;;;;;5011417;28;20049;-80
2023/06/01 08:54:27;;;;;;;22.42;15.52;;;;;;;;;;5012338;28;20472;-80
2023/06/01 08:57:13;;;;;;;22.65;16.27;;;;;;;;;;5017547;28;20072;-81
2023/06/01 08:59:59;;;;;;;25.02;16.00;;;;;;;;;;5010976;28;20042;-79
2023/06/01 09:02:44;;;;;;;24.13;17.58;;;;;;;;;;5011492;28;20038;-80
2023/06/01 09:05:29;;;;;;;23.05;16.17;;;;;;;;;;5011722;28;20050;-79
2023/06/01 09:08:15;;;;;;;24.52;16.52;;;;;;;;;;5011367;28;20054;-80
2023/06/01 09:11:01;;;;;;;21.00;15.07;;;;;;;;;;5012205;28;20551;-80
2023/06/01 09:13:46;;;;;;;26.42;17.40;;;;;;;;;;5011698;28;20054;-77
2023/06/01 09:16:39;;;;;;;24.58;16.52;;;;;;;;;;5010561;28;20046;-79
2023/06/01 09:19:41;;;;;;;20.85;16.20;;;;;;;;;;5011523;28;20033;-78
2023/06/01 09:22:42;;;;;;;21.08;16.13;;;;;;;;;;5010686;28;20046;-77
2023/06/01 09:25:30;;;;;;;20.77;15.50;;;;;;;;;;5009677;28;20045;-78
2023/06/01 09:28:16;;;;;;;25.80;13.20;;;;;;;;;;5011687;28;20053;-80
2023/06/01 09:31:02;;;;;;;16.70;12.77;;;;;;;;;;5010899;28;20045;-81
2023/06/01 09:34:02;;;;;;;15.93;12.57;;;;;;;;;;5011915;28;20041;-84
2023/06/01 09:36:50;;;;;;;19.85;13.23;;;;;;;;;;5012103;28;20038;-80
2023/06/01 09:39:35;;;;;;;19.40;11.93;;;;;;;;;;5011245;28;20046;-84
2023/06/01 09:42:42;;;;;;;20.88;14.73;;;;;;;;;;5011823;28;20045;-81
2023/06/01 09:45:29;;;;;;;18.63;12.77;;;;;;;;;;5011766;28;20049;-79
2023/06/01 09:48:22;;;;;;;32.30;20.33;;;;;;;;;;5012143;28;20045;-81
2023/06/01 09:51:29;;;;;;;19.58;13.55;;;;;;;;;;5011765;28;20046;-80
2023/06/01 09:54:28;;;;;;;16.50;11.32;;;;;;;;;;5011983;28;20045;-80
2023/06/01 09:57:23;;;;;;;15.30;11.45;;;;;;;;;;5012170;28;20053;-80
2023/06/01 10:00:23;;;;;;;16.10;11.75;;;;;;;;;;5012080;28;20038;-78
2023/06/01 10:03:09;;;;;;;15.25;11.20;;;;;;;;;;5011140;28;20050;-78
2023/06/01 10:05:57;;;;;;;20.58;11.77;;;;;;;;;;5011755;28;20053;-80
2023/06/01 10:08:43;;;;;;;14.73;11.00;;;;;;;;;;5011507;28;20045;-80
2023/06/01 10:11:29;;;;;;;14.07;11.13;;;;;;;;;;5011279;28;20049;-78
2023/06/01 10:14:16;;;;;;;16.20;12.07;;;;;;;;;;5015265;28;20050;-84
2023/06/01 10:17:03;;;;;;;14.82;10.73;;;;;;;;;;5015198;28;20042;-82
2023/06/01 10:19:49;;;;;;;14.10;11.27;;;;;;;;;;5014877;28;20041;-81
2023/06/01 10:22:34;;;;;;;14.82;9.88;;;;;;;;;;5014802;28;20046;-83
2023/06/01 10:25:23;;;;;;;13.00;10.32;;;;;;;;;;5019552;28;20045;-82
2023/06/01 10:28:10;;;;;;;14.35;11.32;;;;;;;;;;5015098;28;20034;-83
2023/06/01 10:31:34;;;;;;;15.82;11.20;;;;;;;;;;5014916;28;20042;-80
2023/06/01 10:34:46;;;;;;;13.93;10.68;;;;;;;;;;5006057;28;20050;-83
2023/06/01 10:37:32;;;;;;;14.75;10.82;;;;;;;;;;5014190;28;20042;-82
2023/06/01 10:40:21;;;;;;;14.27;11.32;;;;;;;;;;5014855;28;20042;-80
2023/06/01 10:43:09;;;;;;;15.73;10.60;;;;;;;;;;5013585;28;20053;-79
2023/06/01 10:45:55;;;;;;;14.73;11.18;;;;;;;;;;5013849;28;20479;-78
2023/06/01 10:48:55;;;;;;;14.50;10.65;;;;;;;;;;5015016;28;20407;-85
2023/06/01 10:51:41;;;;;;;14.80;11.25;;;;;;;;;;5013407;28;20061;-84
2023/06/01 10:54:29;;;;;;;19.00;10.80;;;;;;;;;;5007616;28;20049;-86
2023/06/01 10:57:24;;;;;;;17.58;10.80;;;;;;;;;;5014638;28;20042;-81
2023/06/01 11:00:16;;;;;;;15.43;11.02;;;;;;;;;;5014771;28;20049;-80
2023/06/01 11:03:03;;;;;;;13.52;10.68;;;;;;;;;;5013881;28;20045;-83
2023/06/01 11:05:51;;;;;;;13.20;9.88;;;;;;;;;;5019675;28;20046;-80
2023/06/01 11:08:36;;;;;;;15.98;10.05;;;;;;;;;;5007343;28;20045;-80
2023/06/01 11:11:22;;;;;;;12.32;10.05;;;;;;;;;;5006429;28;20049;-81
2023/06/01 11:14:10;;;;;;;13.75;10.93;;;;;;;;;;4998920;28;20399;-83
2023/06/01 11:17:16;;;;;;;15.52;11.40;;;;;;;;;;5013526;28;20391;-84
2023/06/01 11:20:05;;;;;;;20.38;12.43;;;;;;;;;;5013053;28;20038;-83
2023/06/01 11:22:53;;;;;;;17.63;11.30;;;;;;;;;;5013965;28;20050;-81
2023/06/01 11:25:38;;;;;;;16.60;11.55;;;;;;;;;;5008824;28;20789;-82
2023/06/01 11:28:23;;;;;;;14.45;11.77;;;;;;;;;;5004557;28;20037;-82
2023/06/01 11:31:11;;;;;;;17.10;12.27;;;;;;;;;;5013812;28;20488;-82
2023/06/01 11:33:56;;;;;;;15.25;11.27;;;;;;;;;;5013275;28;20407;-82
2023/06/01 11:36:47;;;;;;;17.98;12.10;;;;;;;;;;5012016;28;20045;-83
2023/06/01 11:39:32;;;;;;;14.95;11.20;;;;;;;;;;5013827;28;20042;-80
2023/06/01 11:42:20;;;;;;;17.83;12.25;;;;;;;;;;5013436;28;20050;-82
2023/06/01 11:45:06;;;;;;;18.55;11.82;;;;;;;;;;5013082;28;20562;-82
2023/06/01 11:47:53;;;;;;;15.95;11.65;;;;;;;;;;5013489;28;20046;-80
2023/06/01 11:50:46;;;;;;;15.75;12.50;;;;;;;;;;5012780;28;20049;-82
2023/06/01 11:53:32;;;;;;;17.80;12.38;;;;;;;;;;5007177;28;20042;-85
2023/06/01 11:56:18;;;;;;;17.20;12.20;;;;;;;;;;5013247;28;20046;-80
2023/06/01 11:59:08;;;;;;;17.23;11.45;;;;;;;;;;5012713;28;20050;-80
2023/06/01 12:01:53;;;;;;;17.60;11.48;;;;;;;;;;5013547;28;20046;-79
2023/06/01 12:04:39;;;;;;;14.02;10.90;;;;;;;;;;5012579;28;20400;-82
2023/06/01 12:07:25;;;;;;;14.52;10.57;;;;;;;;;;5012660;28;20042;-82
2023/06/01 12:10:16;;;;;;;16.08;9.63;;;;;;;;;;5013420;28;20041;-82
2023/06/01 12:13:02;;;;;;;11.00;9.07;;;;;;;;;;5011275;28;20042;-79
2023/06/01 12:15:47;;;;;;;10.18;7.72;;;;;;;;;;5012946;28;20399;-80
2023/06/01 12:18:32;;;;;;;7.70;5.82;;;;;;;;;;4991644;28;20049;-83
2023/06/01 12:21:18;;;;;;;7.72;4.55;;;;;;;;;;5012837;28;20038;-79
2023/06/01 12:24:04;;;;;;;5.22;4.07;;;;;;;;;;5012824;28;20049;-83
2023/06/01 12:26:49;;;;;;;7.53;4.00;;;;;;;;;;5011919;28;20041;-80
2023/06/01 12:29:41;;;;;;;5.28;3.60;;;;;;;;;;5011732;28;20058;-80
2023/06/01 12:32:37;;;;;;;4.55;3.05;;;;;;;;;;5006212;28;20049;-82
2023/06/01 12:35:23;;;;;;;6.38;3.42;;;;;;;;;;5011943;28;20049;-80
2023/06/01 12:38:11;;;;;;;5.85;3.70;;;;;;;;;;5012432;28;20053;-83
2023/06/01 12:41:07;;;;;;;6.30;4.50;;;;;;;;;;5012403;28;20404;-83
2023/06/01 12:43:53;;;;;;;5.88;4.05;;;;;;;;;;5011836;28;20045;-82
2023/06/01 12:46:38;;;;;;;6.25;4.53;;;;;;;;;;5011633;28;20042;-82
2023/06/01 12:49:24;;;;;;;6.38;4.75;;;;;;;;;;5011743;28;20050;-82
2023/06/01 12:52:14;;;;;;;7.72;4.68;;;;;;;;;;5011823;28;20384;-80
2023/06/01 12:55:02;;;;;;;9.55;5.80;;;;;;;;;;5011010;28;20050;-81
2023/06/01 12:57:55;;;;;;;7.00;5.63;;;;;;;;;;5025777;28;20050;-81
2023/06/01 13:00:41;;;;;;;7.32;5.38;;;;;;;;;;5012626;28;20050;-79
2023/06/01 13:03:26;;;;;;;6.03;5.40;;;;;;;;;;5012284;28;20049;-82
2023/06/01 13:06:12;;;;;;;6.93;4.75;;;;;;;;;;5012202;28;20419;-79
2023/06/01 13:08:57;;;;;;;7.25;4.80;;;;;;;;;;5011896;28;20042;-82
2023/06/01 13:11:43;;;;;;;7.85;5.18;;;;;;;;;;5012040;28;20482;-81
2023/06/01 13:14:28;;;;;;;7.72;6.00;;;;;;;;;;5010790;28;20492;-81
2023/06/01 13:17:14;;;;;;;8.43;5.40;;;;;;;;;;5011892;28;20045;-79
2023/06/01 13:20:00;;;;;;;7.25;5.18;;;;;;;;;;5012106;28;20046;-82
2023/06/01 13:22:46;;;;;;;8.63;5.07;;;;;;;;;;5011977;28;20038;-82
2023/06/01 13:25:33;;;;;;;7.85;5.28;;;;;;;;;;5011671;28;20045;-82
2023/06/01 13:28:19;;;;;;;7.65;5.25;;;;;;;;;;5003798;28;20387;-80
2023/06/01 13:31:04;;;;;;;11.95;4.95;;;;;;;;;;5011435;28;20041;-81
2023/06/01 13:33:52;;;;;;;7.82;5.35;;;;;;;;;;5011960;28;20050;-84
2023/06/01 13:36:43;;;;;;;9.77;5.50;;;;;;;;;;5011446;28;20050;-80
2023/06/01 13:39:29;;;;;;;7.35;4.60;;;;;;;;;;5005261;28;20053;-80
2023/06/01 13:42:18;;;;;;;7.22;4.70;;;;;;;;;;5011769;28;20054;-82
2023/06/01 13:45:05;;;;;;;7.10;4.43;;;;;;;;;;5011919;28;20042;-82
2023/06/01 13:47:51;;;;;;;7.05;4.13;;;;;;;;;;5013538;28;20483;-82
2023/06/01 13:50:37;;;;;;;5.43;3.40;;;;;;;;;;5009448;28;20037;-80
2023/06/01 13:53:22;;;;;;;4.80;3.20;;;;;;;;;;5015615;28;20483;-80
2023/06/01 13:56:08;;;;;;;5.63;3.20;;;;;;;;;;5015780;28;20387;-80
2023/06/01 13:58:53;;;;;;;4.43;3.03;;;;;;;;;;5015588;28;20046;-82
2023/06/01 14:01:38;;;;;;;4.93;3.30;;;;;;;;;;5015172;28;20049;-79
2023/06/01 14:04:23;;;;;;;6.05;3.60;;;;;;;;;;5015120;28;20045;-80
2023/06/01 14:07:09;;;;;;;7.47;3.15;;;;;;;;;;5015651;28;20042;-80
2023/06/01 14:09:55;;;;;;;6.63;3.20;;;;;;;;;;5015546;28;20042;-82
2023/06/01 14:12:41;;;;;;;3.55;2.63;;;;;;;;;;5014987;28;20045;-80
2023/06/01 14:15:27;;;;;;;3.35;2.67;;;;;;;;;;5027279;28;20053;-82
2023/06/01 14:18:12;;;;;;;4.70;2.78;;;;;;;;;;5014978;28;20046;-79
2023/06/01 14:21:02;;;;;;;5.93;3.08;;;;;;;;;;5014595;28;20038;-79
2023/06/01 14:23:47;;;;;;;3.00;2.72;;;;;;;;;;5014854;28;20053;-78
2023/06/01 14:26:32;;;;;;;4.07;2.72;;;;;;;;;;5014502;28;20053;-78
2023/06/01 14:29:18;;;;;;;6.53;2.78;;;;;;;;;;5014236;28;20053;-78
2023/06/01 14:32:03;;;;;;;3.53;2.53;;;;;;;;;;5027367;28;20499;-78
2023/06/01 14:34:49;;;;;;;3.58;2.55;;;;;;;;;;5014990;28;20042;-78
2023/06/01 14:37:34;;;;;;;7.10;3.88;;;;;;;;;;5006926;28;20050;-79
2023/06/01 14:40:20;;;;;;;3.75;2.10;;;;;;;;;;5014077;28;20033;-79
2023/06/01 14:43:05;;;;;;;6.72;2.22;;;;;;;;;;5027265;28;20050;-78
2023/06/01 14:45:50;;;;;;;6.97;2.45;;;;;;;;;;5014662;28;20049;-78
2023/06/01 14:48:36;;;;;;;5.25;2.33;;;;;;;;;;5010522;28;20046;-78
2023/06/01 14:51:21;;;;;;;3.78;2.25;;;;;;;;;;5013807;28;20042;-78
2023/06/01 14:54:06;;;;;;;3.38;2.20;;;;;;;;;;5014291;28;20038;-78
2023/06/01 14:56:52;;;;;;;5.95;2.35;;;;;;;;;;5014488;28;20042;-78
2023/06/01 14:59:37;;;;;;;4.32;2.70;;;;;;;;;;5013780;28;20049;-78
2023/06/01 15:02:23;;;;;;;5.60;2.72;;;;;;;;;;5013730;28;20045;-79
2023/06/01 15:05:09;;;;;;;4.90;2.40;;;;;;;;;;5014155;28;20041;-78
2023/06/01 15:07:54;;;;;;;7.32;2.67;;;;;;;;;;5019525;28;20057;-78
2023/06/01 15:10:40;;;;;;;4.90;2.45;;;;;;;;;;5014437;28;20050;-79
2023/06/01 15:13:25;;;;;;;5.20;2.58;;;;;;;;;;5019521;28;20038;-79
2023/06/01 15:16:11;;;;;;;4.43;2.70;;;;;;;;;;5019851;28;20053;-78
2023/06/01 15:18:56;;;;;;;5.72;2.25;;;;;;;;;;5014217;28;20392;-78
2023/06/01 15:21:42;;;;;;;4.82;2.25;;;;;;;;;;5013745;28;20045;-77
2023/06/01 15:24:27;;;;;;;4.00;2.60;;;;;;;;;;5013802;28;20043;-79
2023/06/01 15:27:13;;;;;;;5.88;2.70;;;;;;;;;;5019304;28;20407;-77
2023/06/01 15:29:59;;;;;;;3.80;2.78;;;;;;;;;;5012911;28;20403;-77
2023/06/01 15:32:44;;;;;;;4.70;3.75;;;;;;;;;;5013850;28;20054;-77
2023/06/01 15:35:30;;;;;;;3.63;2.78;;;;;;;;;;5014045;28;20038;-77
2023/06/01 15:38:15;;;;;;;4.47;2.65;;;;;;;;;;5013861;28;20050;-77
2023/06/01 15:41:02;;;;;;;4.65;2.70;;;;;;;;;;5013841;28;20232;-79
2023/06/01 15:43:48;;;;;;;4.72;2.55;;;;;;;;;;5013470;28;20053;-77
2023/06/01 15:46:33;;;;;;;8.60;4.75;;;;;;;;;;5007897;28;20075;-83
2023/06/01 15:49:19;;;;;;;4.65;3.08;;;;;;;;;;5013051;28;20460;-83
2023/06/01 15:52:05;;;;;;;5.45;3.47;;;;;;;;;;5013801;28;20392;-84
2023/06/01 15:55:03;;;;;;;5.78;2.95;;;;;;;;;;5016706;28;20045;-84
2023/06/01 15:57:57;;;;;;;3.17;2.47;;;;;;;;;;5018054;28;20049;-84
2023/06/01 16:00:45;;;;;;;4.05;2.70;;;;;;;;;;5015553;28;20275;-83
2023/06/01 16:03:37;;;;;;;5.13;2.30;;;;;;;;;;4999764;28;20041;-85
2023/06/01 16:06:26;;;;;;;5.43;2.72;;;;;;;;;;5006418;28;20419;-82
2023/06/01 16:09:12;;;;;;;4.20;2.35;;;;;;;;;;5013307;28;20050;-83
2023/06/01 16:12:01;;;;;;;5.90;2.47;;;;;;;;;;5013333;28;20045;-85
2023/06/01 16:14:47;;;;;;;7.63;2.83;;;;;;;;;;5026370;28;20472;-82
2023/06/01 16:17:33;;;;;;;4.40;2.75;;;;;;;;;;5017567;28;20041;-86
2023/06/01 16:20:18;;;;;;;4.10;2.40;;;;;;;;;;5025289;28;20050;-85
2023/06/01 16:23:04;;;;;;;3.33;2.30;;;;;;;;;;5013642;28;20431;-86
2023/06/01 16:25:49;;;;;;;6.80;3.20;;;;;;;;;;5013585;28;20037;-88
2023/06/01 16:28:35;;;;;;;8.63;3.30;;;;;;;;;;5013298;28;20053;-88